createdAt,value
2022-08-18T00:03:11.685Z,9.27
2022-08-18T00:07:32.320Z,10.33
2022-08-18T00:11:40.471Z,8.87
2022-08-18T00:15:48.866Z,9.33
2022-08-18T00:19:51.126Z,7.80
2022-08-18T00:23:53.940Z,8.83
2022-08-18T00:27:55.715Z,9.10
2022-08-18T00:31:57.823Z,8.07
2022-08-18T00:36:02.571Z,8.40
2022-08-18T00:40:05.323Z,7.57
2022-08-18T00:44:07.221Z,7.50
2022-08-18T00:48:10.440Z,7.27
2022-08-18T00:52:14.555Z,7.63
2022-08-18T00:56:41.342Z,7.27
2022-08-18T01:00:43.165Z,7.37
2022-08-18T01:05:12.970Z,7.60
2022-08-18T01:09:17.078Z,6.83
2022-08-18T01:13:18.882Z,6.83
2022-08-18T01:17:40.089Z,10.07
2022-08-18T01:21:52.490Z,7.17
2022-08-18T01:25:59.934Z,6.70
2022-08-18T01:30:10.332Z,6.97
2022-08-18T01:34:12.322Z,7.00
2022-08-18T01:38:14.836Z,7.53
2022-08-18T01:42:19.868Z,8.17
2022-08-18T01:46:21.907Z,7.90
2022-08-18T01:50:23.802Z,7.57
2022-08-18T01:54:30.156Z,8.47
2022-08-18T01:58:33.583Z,7.17
2022-08-18T02:02:35.352Z,7.37
2022-08-18T02:06:47.867Z,7.80
2022-08-18T02:10:56.391Z,7.60
2022-08-18T02:15:04.395Z,8.17
2022-08-18T02:19:12.425Z,9.20
2022-08-18T02:23:15.624Z,7.47
2022-08-18T02:27:17.430Z,7.60
2022-08-18T02:31:22.082Z,8.70
2022-08-18T02:35:24.035Z,8.03
2022-08-18T02:39:25.868Z,7.40
2022-08-18T02:43:28.368Z,7.23
2022-08-18T02:47:33.544Z,7.50
2022-08-18T02:51:36.036Z,6.97
2022-08-18T02:55:37.845Z,7.90
2022-08-18T02:59:40.434Z,7.80
2022-08-18T03:03:42.307Z,8.27
2022-08-18T03:07:44.486Z,7.47
2022-08-18T03:11:46.524Z,8.37
2022-08-18T03:15:51.172Z,8.17
2022-08-18T03:19:56.914Z,8.90
2022-08-18T03:24:01.330Z,8.07
2022-08-18T03:28:04.868Z,8.80
2022-08-18T03:32:07.164Z,9.13
2022-08-18T03:36:17.859Z,11.43
2022-08-18T03:40:20.465Z,9.47
2022-08-18T03:44:23.101Z,9.33
2022-08-18T03:48:25.405Z,9.33
2022-08-18T03:52:29.099Z,9.10
2022-08-18T03:56:33.979Z,9.33
2022-08-18T04:00:38.150Z,9.70
2022-08-18T04:04:42.944Z,10.07
2022-08-18T04:08:46.405Z,9.87
2022-08-18T04:12:50.262Z,11.17
2022-08-18T04:16:53.344Z,10.67
2022-08-18T04:20:57.704Z,8.67
2022-08-18T04:25:01.926Z,10.97
2022-08-18T04:29:05.667Z,11.73
2022-08-18T04:33:07.452Z,9.67
2022-08-18T04:37:09.815Z,10.33
2022-08-18T04:41:12.952Z,9.20
2022-08-18T04:45:15.138Z,9.70
2022-08-18T04:49:25.653Z,9.17
2022-08-18T04:53:45.646Z,8.67
2022-08-18T04:57:50.558Z,9.90
2022-08-18T05:01:55.406Z,11.40
2022-08-18T05:05:59.835Z,9.00
2022-08-18T05:10:01.700Z,9.00
2022-08-18T05:14:06.247Z,8.57
2022-08-18T05:18:08.202Z,9.27
2022-08-18T05:22:18.410Z,8.52
2022-08-18T05:26:20.525Z,10.13
2022-08-18T05:30:22.320Z,13.85
2022-08-18T05:34:24.089Z,10.45
2022-08-18T05:38:40.145Z,9.60
2022-08-18T05:42:41.979Z,8.93
2022-08-18T05:46:52.333Z,12.20
2022-08-18T05:50:55.159Z,11.95
2022-08-18T05:55:19.740Z,10.88
2022-08-18T05:59:32.513Z,11.13
2022-08-18T06:03:47.765Z,9.55
2022-08-18T06:08:09.903Z,9.70
2022-08-18T06:12:46.850Z,12.43
2022-08-18T06:17:28.734Z,14.65
2022-08-18T06:21:43.249Z,11.65
2022-08-18T06:26:47.255Z,10.70
2022-08-18T06:31:20.352Z,9.40
2022-08-18T06:35:24.957Z,10.07
2022-08-18T06:39:51.111Z,11.02
2022-08-18T06:44:05.125Z,8.30
2022-08-18T06:48:17.890Z,8.35
2022-08-18T06:52:29.848Z,8.48
2022-08-18T06:56:40.825Z,9.52
2022-08-18T07:01:07.785Z,9.40
2022-08-18T07:05:22.587Z,7.38
2022-08-18T07:09:27.733Z,9.60
2022-08-18T07:14:03.702Z,8.35
2022-08-18T07:18:22.257Z,12.50
2022-08-18T07:22:38.896Z,9.70
2022-08-18T07:27:13.719Z,8.25
2022-08-18T07:31:53.257Z,13.60
2022-08-18T07:36:14.141Z,7.97
2022-08-18T07:41:03.909Z,6.63
2022-08-18T07:45:31.008Z,7.53
2022-08-18T07:49:36.159Z,8.60
2022-08-18T07:53:56.559Z,7.10
2022-08-18T07:58:39.039Z,7.38
2022-08-18T08:02:50.093Z,8.02
2022-08-18T08:07:24.837Z,8.77
2022-08-18T08:12:31.151Z,9.38
2022-08-18T08:17:24.993Z,8.63
2022-08-18T08:21:36.468Z,11.70
2022-08-18T08:26:31.423Z,10.52
2022-08-18T08:30:42.127Z,8.75
2022-08-18T08:35:48.848Z,9.38
2022-08-18T08:40:00.862Z,8.23
2022-08-18T08:44:09.795Z,8.35
2022-08-18T08:48:26.913Z,8.30
2022-08-18T08:52:50.911Z,8.63
2022-08-18T08:56:59.347Z,7.80
2022-08-18T09:01:10.775Z,7.97
2022-08-18T09:05:23.434Z,9.45
2022-08-18T09:10:08.425Z,7.60
2022-08-18T09:14:41.397Z,9.70
2022-08-18T09:19:08.438Z,7.10
2022-08-18T09:23:13.721Z,6.97
2022-08-18T09:28:08.877Z,6.75
2022-08-18T09:32:56.902Z,7.35
2022-08-18T09:37:38.306Z,7.57
2022-08-18T09:42:29.972Z,9.27
2022-08-18T09:47:00.336Z,7.93
2022-08-18T09:51:20.008Z,7.05
2022-08-18T09:56:00.745Z,7.50
2022-08-18T10:00:03.610Z,8.02
2022-08-18T10:04:37.803Z,7.15
2022-08-18T10:09:14.592Z,7.40
2022-08-18T10:14:31.921Z,10.07
2022-08-18T10:19:33.668Z,7.47
2022-08-18T10:24:21.797Z,8.55
2022-08-18T10:29:12.410Z,7.15
2022-08-18T10:33:18.221Z,8.93
2022-08-18T10:37:29.832Z,8.70
2022-08-18T10:41:47.302Z,9.40
2022-08-18T10:50:22.315Z,10.18
2022-08-18T10:59:28.274Z,7.15
2022-08-18T11:04:13.860Z,9.07
2022-08-18T11:08:25.156Z,10.73
2022-08-18T11:13:21.756Z,17.77
2022-08-18T11:18:11.470Z,8.98
2022-08-18T11:22:36.645Z,7.78
2022-08-18T11:27:23.427Z,7.25
2022-08-18T11:31:25.310Z,9.85
2022-08-18T11:35:44.358Z,7.57
2022-08-18T11:39:53.489Z,10.52
2022-08-18T11:43:59.982Z,8.43
2022-08-18T11:48:53.100Z,13.30
2022-08-18T11:52:57.042Z,11.13
2022-08-18T11:57:46.763Z,10.70
2022-08-18T12:01:59.187Z,11.05
2022-08-18T12:06:31.000Z,9.27
2022-08-18T12:10:32.894Z,7.80
2022-08-18T12:15:02.976Z,9.02
2022-08-18T12:19:14.349Z,12.38
2022-08-18T12:23:21.353Z,9.27
2022-08-18T12:27:32.031Z,8.55
2022-08-18T12:31:42.714Z,8.73
2022-08-18T12:35:53.295Z,13.35
2022-08-18T12:39:59.334Z,10.73
2022-08-18T12:44:05.101Z,7.85
2022-08-18T12:48:18.304Z,9.65
2022-08-18T12:52:29.988Z,9.18
2022-08-18T12:56:34.245Z,11.70
2022-08-18T13:00:40.789Z,9.35
2022-08-18T13:04:43.103Z,13.27
2022-08-18T13:08:50.212Z,11.52
2022-08-18T13:12:53.004Z,7.93
2022-08-18T13:16:55.337Z,9.27
2022-08-18T13:21:00.643Z,9.80
2022-08-18T13:25:05.371Z,7.90
2022-08-18T13:29:10.156Z,8.63
2022-08-18T13:33:53.595Z,10.75
2022-08-18T13:37:34.436Z,9.77
2022-08-18T13:41:36.287Z,11.80
2022-08-18T13:45:42.716Z,11.75
2022-08-18T13:49:58.984Z,13.25
2022-08-18T13:54:29.480Z,10.27
2022-08-18T13:58:23.690Z,13.23
2022-08-18T14:02:26.653Z,8.90
2022-08-18T14:06:32.033Z,9.40
2022-08-18T14:10:36.767Z,9.25
2022-08-18T14:14:41.743Z,10.93
2022-08-18T14:18:43.527Z,11.63
2022-08-18T14:23:21.512Z,9.98
2022-08-18T14:27:35.073Z,11.63
2022-08-18T14:31:45.094Z,10.77
2022-08-18T14:36:06.022Z,10.32
2022-08-18T14:40:12.419Z,12.52
2022-08-18T14:44:16.864Z,11.27
2022-08-18T14:48:27.455Z,12.07
2022-08-18T14:52:29.645Z,11.15
2022-08-18T14:56:33.525Z,11.75
2022-08-18T15:00:49.761Z,11.80
2022-08-18T15:05:01.810Z,11.80
2022-08-18T15:09:42.343Z,11.93
2022-08-18T15:13:47.673Z,11.75
2022-08-18T15:17:53.531Z,10.45
2022-08-18T15:22:15.961Z,12.85
2022-08-18T15:26:30.603Z,13.65
2022-08-18T15:30:32.580Z,11.15
2022-08-18T15:34:46.153Z,14.93
2022-08-18T15:38:53.534Z,13.18
2022-08-18T15:43:01.288Z,12.02
2022-08-18T15:47:04.774Z,11.27
2022-08-18T15:51:11.818Z,14.20
2022-08-18T15:55:14.416Z,10.95
2022-08-18T15:59:16.776Z,10.45
2022-08-18T16:03:20.581Z,10.90
2022-08-18T16:07:25.151Z,11.30
2022-08-18T16:11:42.687Z,11.10
2022-08-18T16:15:46.848Z,10.80
2022-08-18T16:19:49.841Z,10.13
2022-08-18T16:24:18.202Z,11.23
2022-08-18T16:28:20.335Z,10.90
2022-08-18T16:32:39.041Z,10.85
2022-08-18T16:36:41.068Z,11.20
2022-08-18T16:40:49.533Z,12.65
2022-08-18T16:44:51.787Z,11.10
2022-08-18T16:48:57.619Z,11.07
2022-08-18T16:53:01.338Z,11.65
2022-08-18T16:57:09.886Z,11.88
2022-08-18T17:01:33.754Z,11.00
2022-08-18T17:05:59.349Z,11.82
2022-08-18T17:10:04.753Z,11.07
2022-08-18T17:14:07.644Z,10.98
2022-08-18T17:18:12.612Z,11.05
2022-08-18T17:22:17.384Z,10.05
2022-08-18T17:27:03.990Z,14.32
2022-08-18T17:31:14.224Z,10.75
2022-08-18T17:35:37.373Z,10.73
2022-08-18T17:40:00.417Z,10.52
2022-08-18T17:44:04.270Z,10.80
2022-08-18T17:48:17.858Z,13.52
2022-08-18T17:52:21.380Z,10.88
2022-08-18T17:56:35.525Z,10.18
2022-08-18T18:00:39.798Z,9.75
2022-08-18T18:04:51.312Z,12.70
2022-08-18T18:09:37.924Z,10.75
2022-08-18T18:14:05.312Z,10.80
2022-08-18T18:18:55.436Z,11.38
2022-08-18T18:23:27.237Z,23.33
2022-08-18T18:27:48.544Z,12.00
2022-08-18T18:32:40.827Z,12.45
2022-08-18T18:36:48.761Z,12.00
2022-08-18T18:41:10.679Z,16.00
2022-08-18T18:45:27.442Z,12.65
2022-08-18T18:50:25.994Z,11.25
2022-08-18T18:55:02.870Z,12.45
2022-08-18T18:59:47.641Z,13.25
2022-08-18T19:04:33.535Z,13.32
2022-08-18T19:09:22.286Z,12.13
2022-08-18T19:13:35.760Z,10.57
2022-08-18T19:17:58.382Z,10.02
2022-08-18T19:22:37.870Z,11.55
2022-08-18T19:26:46.095Z,11.23
2022-08-18T19:30:49.985Z,10.65
2022-08-18T19:34:55.850Z,11.23
2022-08-18T19:39:17.978Z,11.25
2022-08-18T19:43:53.841Z,11.88
2022-08-18T19:48:55.127Z,13.18
2022-08-18T19:53:52.589Z,12.07
2022-08-18T19:58:58.555Z,11.63
2022-08-18T20:03:43.057Z,11.93
2022-08-18T20:09:05.607Z,12.57
2022-08-18T20:13:43.331Z,12.40
2022-08-18T20:18:06.702Z,12.77
2022-08-18T20:22:46.996Z,12.30
2022-08-18T20:26:55.007Z,12.87
2022-08-18T20:31:15.332Z,12.23
2022-08-18T20:35:36.904Z,12.43
2022-08-18T20:40:01.225Z,13.37
2022-08-18T20:44:40.041Z,14.23
2022-08-18T20:49:27.775Z,13.70
2022-08-18T20:53:50.898Z,13.07
2022-08-18T20:58:04.140Z,13.27
2022-08-18T21:02:40.927Z,12.63
2022-08-18T21:06:52.165Z,13.40
2022-08-18T21:11:02.882Z,12.67
2022-08-18T21:15:13.143Z,11.90
2022-08-18T21:19:30.419Z,11.87
2022-08-18T21:23:41.494Z,12.50
2022-08-18T21:27:51.971Z,13.43
2022-08-18T21:32:20.734Z,12.40
2022-08-18T21:36:29.774Z,13.73
2022-08-18T21:41:13.191Z,13.40
2022-08-18T21:45:29.371Z,14.40
2022-08-18T21:49:32.539Z,14.60
2022-08-18T21:53:35.531Z,15.00
2022-08-18T21:58:14.048Z,14.73
2022-08-18T22:02:21.420Z,12.90
2022-08-18T22:06:35.199Z,14.87
2022-08-18T22:10:57.676Z,15.07
2022-08-18T22:15:10.533Z,14.53
2022-08-18T22:19:23.822Z,14.43
2022-08-18T22:23:58.252Z,14.43
2022-08-18T22:28:00.485Z,13.43
2022-08-18T22:32:04.073Z,14.07
2022-08-18T22:36:06.069Z,13.70
2022-08-18T22:40:13.796Z,13.57
2022-08-18T22:44:16.284Z,14.47
2022-08-18T22:48:18.166Z,13.13
2022-08-18T22:52:29.591Z,14.37
2022-08-18T22:56:34.495Z,14.53
2022-08-18T23:00:39.354Z,14.17
2022-08-18T23:04:48.393Z,14.47
2022-08-18T23:08:55.345Z,13.40
2022-08-18T23:13:00.982Z,14.03
2022-08-18T23:17:08.248Z,13.73
2022-08-18T23:21:13.179Z,14.17
2022-08-18T23:25:35.178Z,14.07
2022-08-18T23:29:41.261Z,14.80
2022-08-18T23:33:43.050Z,13.53
2022-08-18T23:37:45.076Z,14.50
2022-08-18T23:41:46.847Z,14.63
2022-08-18T23:45:55.777Z,13.73
2022-08-18T23:49:57.854Z,15.30
2022-08-18T23:54:03.488Z,14.93
2022-08-18T23:58:05.680Z,15.13
